Harwich Port, MA (02646)

6:24 AM EST on December 07, 2016 (GMT -0500)
Allen Harbor Yacht Club | | Change Station

Elev 15 ft 41.67 °N, 70.09 °W | Updated 21 seconds ago

Overcast
Overcast
40.4 °F
Feels Like 40 °F
N
2.4
Wind Variable Wind from NE
Gusts 3.5 mph

Today
High -- | Low -- °F
--% Chance of Precip.
Yesterday
High -- | Low -- °F
Precip. -- in
Pressure 29.93 in
Visibility 10.0 miles
Clouds Few 2200 ft
Overcast 6000 ft
Windchill 40 °F
Dew Point 37 °F
Humidity 89%
Rainfall 0.05 in
Snow Depth Not available.
6:54 AM 4:09 PM
Waxing Crescent, 51% visible
METAR KCQX 071052Z AUTO 05010KT 10SM FEW022 OVC060 06/02 A2992 RMK AO2 SLP133 T00610017
Pressure 29.93 in
Visibility 10.0 miles
Clouds Few 2200 ft
Overcast 6000 ft
Windchill 40 °F
Dew Point 37 °F
Humidity 89%
Rainfall 0.05 in
Snow Depth Not available.
6:54 AM 4:09 PM
Waxing Crescent, 51% visible
METAR KCQX 071052Z AUTO 05010KT 10SM FEW022 OVC060 06/02 A2992 RMK AO2 SLP133 T00610017

10-Day Weather Forecast

Almanac

Astronomy

Dec. 07, 2016 Rise Set
Actual Time
Civil Twilight
Nautical Twilight
Astronomical Twilight
Moon
Length of Visible Light
Length of Day
Tomorrow will be .
, % of the Moon is Illuminated

Today's Extremes

State Highs State Lows

Community

WunderPhotos

Upload Photos

1,956,111 photos uploaded!

WunderBlog® & News

Nearby

Air Quality

  Air Quality AQ Index Pollutant
Not available.

Snow Depth

Station Depth Elevation

Earthquake Activity

City Distance Mag. Time & Date
Minimum magnitude displayed is 2.5.

Coastal Water Temperatures

Place Temperature

Stations

Nearby Weather Stations

Station Location Temp. Windchill Dew Point Humidity Wind Precip. Elev Updated Type
                   

Watches & Warnings

There are currently no watches in effect.